Metar Aviation Weather Data KAVP Wilkes-Barre / Scranton International

77°F Temp
66°F Dewpoint
69% Humidity
Temperature
10 MPH
16 KM/H
9 KTS
330°
North North
West

Wind Speed
Mostly Scattered
Clouds
Pressure 1008.5 (hPa) - 29.81 (in)
Visibility 10.0 (mi) - 16 (km)

Current Conditions
KAVP
Wilkes-Barre / Scranton International
Metar :KAVP 181654Z 33009KT 10SM SCT026 BKN032 BKN041 25/19 A2981 RMK AO2 SLP085 T02500194
Tue 18th September 12:54 pm

Wilkes-Barre / Scranton International
  Metar Aviation API Data Provided by https://www.checkwx.com/ PHP scripts by weather34.com ©2018